To NAV CANADA Home Page Login to a new session Search on AWWS site Feedback and Comments Disclaimer Vers la page française équivalente Tips FAQ What's new on the site To the Forecasts and Observations / NOTAM section To "File a Flight Plan" website Publications and other links Update of the User's profile FIC Telephone Numbers My Weather Data Folder Route Weather Data Regional Weather Data Local Weather Data To the Forecasts and Observations / NOTAM section
Request Generated 03/23/2017 at 00:17:34 UTC . Weather information available at that time is displayed.

METAR/TAF

If you find any discrepancies between the coded METAR/TAF and the plain language METAR/TAF please use the coded METAR/TAF. LWIS bulletins are not decoded in plain language.

CALGARY/SPRINGBANK/AB    (show WxCam)

METAR CYBW 230000Z AUTO 28019G28KT 9SM CLR 11/M05 A2963 RMK SLP061 DENSITY ALT 4600FT=
METAR
LOCATION
CYBW - CALGARY/SPRINGBANK/AB
DATE - TIME
23 MARCH 2017 - 0000 UTC
WIND
280 TRUE @ 19  KNOTS
GUSTS
28 KNOTS
VISIBILITY
9 STAT.  MILES
RUNWAY VISUAL RANGE
WEATHER
CLOUDINESS
CLEAR SKY
TEMP / DEWPOINT
11 C / -5 C
ALTIMETER
29.63 IN HG
RECENT WEATHER
WIND SHEAR

METAR CYBW 222300Z AUTO 28015G23KT 9SM SCT200 12/M04 A2963 RMK SLP058 DENSITY ALT 4800FT=
METAR
LOCATION
CYBW - CALGARY/SPRINGBANK/AB
DATE - TIME
22 MARCH 2017 - 2300 UTC
WIND
280 TRUE @ 15  KNOTS
GUSTS
23 KNOTS
VISIBILITY
9 STAT.  MILES
RUNWAY VISUAL RANGE
WEATHER
CLOUDINESS
SCATTERED CLOUDS (3/8 - 4/8) 20000  FT
TEMP / DEWPOINT
12 C / -4 C
ALTIMETER
29.63 IN HG
RECENT WEATHER
WIND SHEAR

METAR CYBW 222200Z AUTO 28019G27KT 9SM CLR 12/M05 A2961 RMK SLP052 DENSITY ALT 4800FT=
METAR
LOCATION
CYBW - CALGARY/SPRINGBANK/AB
DATE - TIME
22 MARCH 2017 - 2200 UTC
WIND
280 TRUE @ 19  KNOTS
GUSTS
27 KNOTS
VISIBILITY
9 STAT.  MILES
RUNWAY VISUAL RANGE
WEATHER
CLOUDINESS
CLEAR SKY
TEMP / DEWPOINT
12 C / -5 C
ALTIMETER
29.61 IN HG
RECENT WEATHER
WIND SHEAR

TAF CYBW 222349Z 2300/2304 29015G25KT P6SM SKC BECMG 2300/2302 27012KT BECMG 2302/2304 21006KT RMK FCST BASED ON AUTO OBS. NXT FCST WILL BE ISSUED AT 231145Z=
TAF
LOCATION

CYBW - CALGARY/SPRINGBANK/AB
VALIDITY [UTC]
22 MAR - 2349 to
23 MAR - 0400
 
TIMES
[UTC]
WIND
[DEGREES TRUE]
VISIBILITY
[STAT. MILES]
WEATHER
CLOUDINESS
[FEET AGL]
 
23 MAR - 0000 to
23 MAR - 0400
290 @ 15 KNOTS
GUSTS 25 KNOTS
6+
NIL
CLEAR SKY
BECOMING
23 MAR - 0000 to
23 MAR - 0200
270 @ 12 KNOTS
 
 
 
BECOMING
23 MAR - 0200 to
23 MAR - 0400
210 @ 6 KNOTS
 
 
 
REMARKS
THE FORECAST IS BASED ON AUTOMATIC OBSERVATIONS - THE NEXT FORECAST WILL BE ISSUED AT 1145 UTC ON DAY 23


Your time UTC time
Weather data provided by Environment Canada and NAV CANADA